Hauptseite
METAR-TAF:

METAR-TAF

Flughäfen :

Flughafen Sønderborg

Sønderborg, Dänemark

Breite: 54-58N, Länge: 009-47E, Höhe: 7 m

Beobachtung

Neuester Wetterbericht von vor 26 Minuten, um 01:50 UTC
Wind 6 kt aus Südwest, variierte zwischen Süd/Südwest und West
Temperatur 8°C
Luftfeuchtigkeit 93%
Luftdruck 1030 hPa
Sichtweite: 3300 m
feuchter Dunst

METAR: EKSB 210150Z AUTO 23006KT 200V270 3300NDV BR OVC004/// 08/07 Q1030

Zeit: 03:16 (02:16 UTC)

Prognose

Neuester Wetterbericht von vor 8 Stunden und 55 Minuten, um 17:21 UTC
Gültige Prognose vom 20 um 18 UTC bis 20 um 23 UTC
Wind 5 kt aus West/Südwest
Sichtweite: 6000 m
Durchbrochene Bewölkung in der Höhe von 2000 ft
Zeitweise
vom 20 um 18 UTC bis 20 um 23 UTC
Sichtweite: 2500 m
Durchbrochene Bewölkung in der Höhe von 200 ft
feuchter Dunst

TAF: EKSB 201721Z 2018/2023 25005KT 6000 BKN020 TEMPO 2018/2023 2500 BR BKN002

Wetterbeobachtungen und Prognosen von mehr als 4000 Flughäfen (METAR und TAF Bericht).

Die verfügbaren Stationen werden durch gelbe und rote Markierungen auf der Karte dargestellt.

Führen Sie die Maus auf sie, um den Namen der Station zu sehen.

Darauf klicken, um die Beobachtung von Wetterbeobachtungen und Prognosen zu sehen.

Um die Karte zu ändern : klicken Sie auf den grünen Tasten mit einem schwarzen Kreuz Zum Vergrößern, auf den grünen Button mit einem Gedankenstrich zu verkleinern, oder auf die grünen Pfeile für benachbarte Karten.


METAR-TAF: